Portada
METAR-TAF:

METAR-TAF

Aeroports :

Bournemouth, Anglaterra

latitud: 50-47N, longitud: 001-50W, altitud: 11 m

Observació

L'informe es va fer fa 18 minuts, a les 20:50 UTC
Vent 4 kt del Est/Nord-Est
Temperatura 18°C
Humitat 73%
Pressió 1016 hPa
Visibilitat 10 km o més
sense núvols per sota de 1500 mi sense presència de cumulonimbus.

METAR: EGHH 242050Z 07004KT CAVOK 18/13 Q1016

Hora: 22:08 (21:08 UTC)

Pronòstic

L'informe es va fer fa 1 hora i 3 minuts, a les 20:05 UTC
Pronòstic vàlid del 24 a les 21 UTC al 25 a les 06 UTC
Vent 3 kt del Est
Visibilitat 10 km o més
Escasses núvols a una alçada de 3000 ft
Probabilitat 30% :
Temporalment
l' 25 a les 00 UTC al 25 a les 06 UTC
Visibilitat: 8000 m

TAF: EGHH 242005Z 2421/2506 09003KT 9999 FEW030 PROB30 TEMPO 2500/2506 8000

Observacions i pronòstics meteorològics de més de 4000 aeroports (METAR i TAF).

Les estacions disponibles són els punts grocs i vermells al mapa.

Posi el ratolí al punt desitjat per veure el nom de l'estació.

Feu clic per veure les observacions i els pronòstics meteorològics.

Per canviar el mapa: feu clic els botons verds amb una creu de color negre per apropar; al botó verd amb un guió per allunyar la imatge; o en les fletxes verdes per a mapes adjacents.


METAR-TAF: